Time;durP1;ratioP1;P1;durP2;ratioP2;P2;SDS_P1;SDS_P2;PMS_P1;PMS_P2;Temp;Humidity;BMP_temperature;BMP_pressure;BME280_temperature;BME280_humidity;BME280_pressure;Samples;Min_cycle;Max_cycle;Signal;HPM_P1;HPM_P2
2022/03/15 00:01:33;;;;;;;4.70;3.13;;;;;;;;;;4544180;28;20056;-67
2022/03/15 00:03:44;;;;;;;4.33;3.07;;;;;;;;;;4546043;28;20025;-67
2022/03/15 00:05:54;;;;;;;4.97;3.23;;;;;;;;;;4544682;28;20116;-66
2022/03/15 00:08:05;;;;;;;5.17;3.00;;;;;;;;;;4542371;28;20048;-67
2022/03/15 00:10:17;;;;;;;4.28;3.00;;;;;;;;;;4552255;28;20017;-67
2022/03/15 00:12:29;;;;;;;;;;;;;;;;;;4544099;28;20044;-68
2022/03/15 00:14:41;;;;;;;4.00;3.13;;;;;;;;;;4541516;28;19913;-66
2022/03/15 00:16:52;;;;;;;4.00;2.90;;;;;;;;;;4540710;28;20960;-67
2022/03/15 00:19:03;;;;;;;4.70;3.00;;;;;;;;;;4542179;28;20120;-66
2022/03/15 00:21:15;;;;;;;5.25;3.58;;;;;;;;;;4540237;28;20053;-67
2022/03/15 00:23:25;;;;;;;;;;;;;;;;;;4546690;28;20054;-67
2022/03/15 00:25:36;;;;;;;4.90;2.90;;;;;;;;;;4547365;28;19912;-69
2022/03/15 00:27:49;;;;;;;4.22;2.67;;;;;;;;;;4546128;28;20592;-67
2022/03/15 00:30:00;;;;;;;4.72;3.30;;;;;;;;;;4545412;28;20095;-67
2022/03/15 00:32:19;;;;;;;5.72;3.53;;;;;;;;;;4537687;28;20024;-66
2022/03/15 00:34:32;;;;;;;4.45;2.92;;;;;;;;;;4544391;28;20033;-67
2022/03/15 00:36:43;;;;;;;5.87;3.50;;;;;;;;;;4531330;28;20053;-66
2022/03/15 00:38:53;;;;;;;4.77;3.30;;;;;;;;;;4545818;28;20451;-66
2022/03/15 00:41:04;;;;;;;5.10;3.30;;;;;;;;;;4547269;28;20041;-67
2022/03/15 00:43:18;;;;;;;4.60;3.00;;;;;;;;;;4537200;28;20413;-68
2022/03/15 00:45:29;;;;;;;5.10;3.50;;;;;;;;;;4547971;28;20112;-67
2022/03/15 00:47:39;;;;;;;4.90;3.30;;;;;;;;;;4544412;28;20539;-67
2022/03/15 00:49:50;;;;;;;5.40;3.30;;;;;;;;;;4544965;28;22245;-66
2022/03/15 00:52:00;;;;;;;4.67;3.27;;;;;;;;;;4527934;28;20498;-67
2022/03/15 00:54:11;;;;;;;3.43;2.70;;;;;;;;;;4554231;28;20137;-66
2022/03/15 00:56:21;;;;;;;4.10;3.00;;;;;;;;;;4547428;28;20028;-66
2022/03/15 00:58:31;;;;;;;4.73;3.03;;;;;;;;;;4554692;28;20028;-66
2022/03/15 01:00:48;;;;;;;4.72;3.30;;;;;;;;;;4546555;28;20051;-66
2022/03/15 01:02:59;;;;;;;4.53;3.10;;;;;;;;;;4544564;28;20036;-66
2022/03/15 01:05:10;;;;;;;5.57;3.77;;;;;;;;;;4548213;28;20110;-66
2022/03/15 01:07:23;;;;;;;4.53;3.03;;;;;;;;;;4544950;28;20055;-68
2022/03/15 01:09:35;;;;;;;4.93;3.10;;;;;;;;;;4544016;28;20024;-66
2022/03/15 01:11:45;;;;;;;4.78;2.97;;;;;;;;;;4545940;28;20682;-67
2022/03/15 01:13:56;;;;;;;4.43;3.40;;;;;;;;;;4526393;28;21071;-66
2022/03/15 01:16:07;;;;;;;5.13;3.40;;;;;;;;;;4546665;28;20513;-66
2022/03/15 01:18:17;;;;;;;5.27;3.30;;;;;;;;;;4545715;28;20025;-67
2022/03/15 01:20:28;;;;;;;4.40;3.07;;;;;;;;;;4547112;28;20048;-66
2022/03/15 01:22:39;;;;;;;4.80;3.10;;;;;;;;;;4544884;28;20021;-66
2022/03/15 01:24:50;;;;;;;;;;;;;;;;;;4545268;28;20025;-66
2022/03/15 01:27:01;;;;;;;3.90;2.85;;;;;;;;;;4531801;28;20384;-66
2022/03/15 01:29:11;;;;;;;4.17;3.00;;;;;;;;;;4543125;28;20754;-66
2022/03/15 01:31:21;;;;;;;3.80;2.93;;;;;;;;;;4545374;28;31479;-66
2022/03/15 01:33:32;;;;;;;3.87;3.07;;;;;;;;;;4542789;28;20627;-66
2022/03/15 01:35:43;;;;;;;4.10;3.13;;;;;;;;;;4545553;28;40102;-66
2022/03/15 01:37:53;;;;;;;4.73;2.80;;;;;;;;;;4543855;28;20040;-66
2022/03/15 01:40:04;;;;;;;4.03;2.73;;;;;;;;;;4545123;28;20029;-66
2022/03/15 01:42:14;;;;;;;4.53;2.97;;;;;;;;;;4549029;28;20110;-66
2022/03/15 01:44:26;;;;;;;3.83;2.90;;;;;;;;;;4544044;28;20029;-67
2022/03/15 01:46:37;;;;;;;4.20;2.90;;;;;;;;;;4544906;28;20560;-66
2022/03/15 01:48:47;;;;;;;3.27;2.40;;;;;;;;;;4544310;28;20033;-66
2022/03/15 01:50:58;;;;;;;3.50;2.53;;;;;;;;;;4543401;28;20071;-66
2022/03/15 01:53:12;;;;;;;4.70;3.33;;;;;;;;;;4545377;28;20025;-66
2022/03/15 01:55:24;;;;;;;5.40;3.50;;;;;;;;;;4546791;28;20508;-66
2022/03/15 01:57:34;;;;;;;4.40;3.10;;;;;;;;;;4544210;28;20088;-66
2022/03/15 01:59:45;;;;;;;5.77;3.60;;;;;;;;;;4553497;28;20024;-66
2022/03/15 02:01:55;;;;;;;4.27;3.07;;;;;;;;;;4546751;28;20045;-66
2022/03/15 02:04:06;;;;;;;5.17;3.10;;;;;;;;;;4546892;28;20554;-66
2022/03/15 02:06:17;;;;;;;4.77;2.70;;;;;;;;;;4543528;28;20021;-66
2022/03/15 02:08:27;;;;;;;5.10;3.23;;;;;;;;;;4545668;28;20262;-66
2022/03/15 02:10:38;;;;;;;4.93;3.10;;;;;;;;;;4544550;28;20022;-66
2022/03/15 02:12:48;;;;;;;5.00;3.40;;;;;;;;;;4553593;28;20337;-66
2022/03/15 02:15:02;;;;;;;4.40;3.10;;;;;;;;;;4544352;28;20036;-66
2022/03/15 02:17:13;;;;;;;4.15;2.85;;;;;;;;;;4544171;28;20965;-66
2022/03/15 02:19:24;;;;;;;4.40;3.27;;;;;;;;;;4543802;28;20208;-66
2022/03/15 02:21:36;;;;;;;4.47;3.07;;;;;;;;;;4544537;28;20072;-66
2022/03/15 02:23:47;;;;;;;5.25;3.60;;;;;;;;;;4560283;28;20096;-66
2022/03/15 02:25:57;;;;;;;6.83;3.17;;;;;;;;;;4542838;28;20067;-66
2022/03/15 02:28:07;;;;;;;4.77;3.40;;;;;;;;;;4545175;28;20576;-66
2022/03/15 02:30:18;;;;;;;5.13;3.40;;;;;;;;;;4543572;28;20032;-66
2022/03/15 02:32:29;;;;;;;5.88;3.60;;;;;;;;;;4543552;28;20049;-66
2022/03/15 02:34:39;;;;;;;5.23;3.20;;;;;;;;;;4543926;28;30131;-66
2022/03/15 02:36:50;;;;;;;4.77;3.30;;;;;;;;;;4544876;28;20033;-66
2022/03/15 02:39:00;;;;;;;4.87;3.23;;;;;;;;;;4544470;28;20029;-68
2022/03/15 02:41:11;;;;;;;4.37;2.70;;;;;;;;;;4542649;28;20749;-66
2022/03/15 02:43:22;;;;;;;5.50;3.53;;;;;;;;;;4542658;28;20032;-66
2022/03/15 02:45:32;;;;;;;4.63;3.30;;;;;;;;;;4543288;28;20028;-66
2022/03/15 02:47:44;;;;;;;5.13;3.20;;;;;;;;;;4543201;28;20025;-66
2022/03/15 02:49:54;;;;;;;5.00;3.33;;;;;;;;;;4545895;28;20547;-66
2022/03/15 02:52:05;;;;;;;3.93;3.17;;;;;;;;;;4542534;28;34045;-66
2022/03/15 02:54:16;;;;;;;5.27;3.27;;;;;;;;;;4544392;28;20033;-66
2022/03/15 02:56:27;;;;;;;4.90;3.57;;;;;;;;;;4542376;28;20406;-66
2022/03/15 02:58:39;;;;;;;5.00;3.42;;;;;;;;;;4541901;28;20631;-66
2022/03/15 03:00:49;;;;;;;4.00;2.75;;;;;;;;;;4540866;28;20616;-66
2022/03/15 03:02:59;;;;;;;4.83;3.23;;;;;;;;;;4542263;28;34470;-66
2022/03/15 03:05:10;;;;;;;4.17;3.27;;;;;;;;;;4543642;28;20040;-66
2022/03/15 03:07:20;;;;;;;5.47;3.33;;;;;;;;;;4545437;28;20083;-66
2022/03/15 03:09:31;;;;;;;4.83;3.20;;;;;;;;;;4543223;28;34497;-66
2022/03/15 03:11:41;;;;;;;5.33;3.30;;;;;;;;;;4543736;28;20508;-66
2022/03/15 03:13:54;;;;;;;5.03;3.47;;;;;;;;;;4543813;28;20068;-66
2022/03/15 03:16:07;;;;;;;5.85;3.38;;;;;;;;;;4543410;28;20025;-66
2022/03/15 03:18:17;;;;;;;5.20;3.60;;;;;;;;;;4542954;28;20028;-66
2022/03/15 03:20:32;;;;;;;5.10;3.45;;;;;;;;;;4543633;28;20063;-66
2022/03/15 03:22:43;;;;;;;5.10;3.20;;;;;;;;;;4544412;28;20055;-66
2022/03/15 03:24:54;;;;;;;6.23;3.70;;;;;;;;;;4544218;28;20068;-66
2022/03/15 03:27:04;;;;;;;6.25;4.13;;;;;;;;;;4542987;28;20021;-66
2022/03/15 03:29:15;;;;;;;4.97;3.73;;;;;;;;;;4543562;28;20368;-66
2022/03/15 03:31:26;;;;;;;5.53;3.63;;;;;;;;;;4544824;28;20044;-66
2022/03/15 03:33:37;;;;;;;5.80;3.93;;;;;;;;;;4542677;28;25554;-66
2022/03/15 03:35:50;;;;;;;5.60;3.50;;;;;;;;;;4543701;28;20021;-66
2022/03/15 03:38:01;;;;;;;5.20;3.70;;;;;;;;;;4542821;28;20285;-66
2022/03/15 03:40:12;;;;;;;4.23;3.10;;;;;;;;;;4545920;28;20024;-66
2022/03/15 03:42:22;;;;;;;4.40;3.30;;;;;;;;;;4544120;28;20110;-66
2022/03/15 03:44:34;;;;;;;6.23;3.63;;;;;;;;;;4544127;28;20139;-66
2022/03/15 03:46:45;;;;;;;6.40;3.60;;;;;;;;;;4544361;28;20057;-66
2022/03/15 03:48:56;;;;;;;;;;;;;;;;;;4552563;28;20588;-66
2022/03/15 03:51:08;;;;;;;5.53;3.70;;;;;;;;;;4544371;28;20214;-66
2022/03/15 03:53:21;;;;;;;3.45;2.97;;;;;;;;;;4542428;28;20866;-66
2022/03/15 03:55:31;;;;;;;5.63;3.58;;;;;;;;;;4550906;28;20032;-66
2022/03/15 03:57:42;;;;;;;6.33;3.60;;;;;;;;;;4544470;28;20083;-66
2022/03/15 03:59:52;;;;;;;4.93;3.50;;;;;;;;;;4542327;28;23452;-66
2022/03/15 04:02:03;;;;;;;7.63;4.23;;;;;;;;;;4541737;28;20143;-66
2022/03/15 04:04:14;;;;;;;8.15;4.10;;;;;;;;;;4543672;28;20711;-66
2022/03/15 04:06:24;;;;;;;5.13;3.77;;;;;;;;;;4545410;28;20025;-66
2022/03/15 04:08:34;;;;;;;5.00;3.53;;;;;;;;;;4541565;28;20609;-66
2022/03/15 04:10:48;;;;;;;6.32;3.80;;;;;;;;;;4543885;28;20017;-66
2022/03/15 04:12:58;;;;;;;5.80;3.97;;;;;;;;;;4543885;28;20025;-66
2022/03/15 04:15:09;;;;;;;5.47;3.60;;;;;;;;;;4544278;28;20021;-66
2022/03/15 04:17:20;;;;;;;6.43;4.23;;;;;;;;;;4544425;28;20060;-66
2022/03/15 04:19:31;;;;;;;5.47;3.40;;;;;;;;;;4541300;28;20690;-66
2022/03/15 04:21:41;;;;;;;6.78;3.78;;;;;;;;;;4541234;28;20055;-66
2022/03/15 04:23:54;;;;;;;4.10;3.20;;;;;;;;;;4543953;28;20090;-66
2022/03/15 04:26:05;;;;;;;5.82;3.80;;;;;;;;;;4543717;28;20013;-66
2022/03/15 04:28:15;;;;;;;5.53;3.63;;;;;;;;;;4542305;28;20036;-66
2022/03/15 04:30:27;;;;;;;4.60;3.13;;;;;;;;;;4541649;28;20737;-66
2022/03/15 04:32:38;;;;;;;6.72;3.58;;;;;;;;;;4551271;28;20122;-66
2022/03/15 04:34:48;;;;;;;5.00;3.47;;;;;;;;;;4543940;28;20102;-65
2022/03/15 04:36:58;;;;;;;5.50;3.60;;;;;;;;;;4542696;28;20416;-66
2022/03/15 04:39:10;;;;;;;6.90;4.00;;;;;;;;;;4541230;28;20025;-66
2022/03/15 04:41:20;;;;;;;4.38;3.08;;;;;;;;;;4528809;28;20041;-66
2022/03/15 04:43:32;;;;;;;5.40;3.57;;;;;;;;;;4541912;28;20040;-66
2022/03/15 04:45:42;;;;;;;5.95;3.42;;;;;;;;;;4543411;28;20076;-67
2022/03/15 04:47:53;;;;;;;4.37;3.37;;;;;;;;;;4542592;28;20036;-66
2022/03/15 04:50:03;;;;;;;4.90;3.20;;;;;;;;;;4541289;28;20076;-66
2022/03/15 04:52:14;;;;;;;6.30;3.40;;;;;;;;;;4544172;28;20493;-66
2022/03/15 04:54:29;;;;;;;6.73;4.00;;;;;;;;;;4541999;28;20603;-66
2022/03/15 04:56:39;;;;;;;4.80;3.40;;;;;;;;;;4542801;28;20094;-66
2022/03/15 04:58:50;;;;;;;4.93;3.60;;;;;;;;;;4542570;28;20107;-66
2022/03/15 05:01:00;;;;;;;5.75;3.78;;;;;;;;;;4542876;28;20359;-66
2022/03/15 05:03:11;;;;;;;5.60;3.97;;;;;;;;;;4543485;28;20100;-66
2022/03/15 05:05:21;;;;;;;6.80;4.50;;;;;;;;;;4542981;28;20132;-66
2022/03/15 05:07:32;;;;;;;5.67;3.97;;;;;;;;;;4542309;28;20021;-66
2022/03/15 05:12:12;;;;;;;6.07;3.97;;;;;;;;;;4544739;28;20599;-66
2022/03/15 05:14:23;;;;;;;5.75;4.18;;;;;;;;;;4544969;28;20009;-66
2022/03/15 05:16:33;;;;;;;5.93;3.77;;;;;;;;;;4544950;28;20021;-66
2022/03/15 05:18:49;;;;;;;5.30;3.40;;;;;;;;;;4546128;28;20024;-66
2022/03/15 05:21:01;;;;;;;4.78;3.50;;;;;;;;;;4545855;28;20048;-65
2022/03/15 05:23:12;;;;;;;5.78;3.65;;;;;;;;;;4543903;28;20244;-66
2022/03/15 05:25:22;;;;;;;5.67;3.77;;;;;;;;;;4546921;28;20063;-66
2022/03/15 05:27:33;;;;;;;6.53;4.00;;;;;;;;;;4545733;28;20489;-66
2022/03/15 05:29:44;;;;;;;6.43;4.00;;;;;;;;;;4547768;28;20962;-66
2022/03/15 05:31:55;;;;;;;5.73;4.20;;;;;;;;;;4544075;28;20107;-66
2022/03/15 05:34:05;;;;;;;6.53;4.33;;;;;;;;;;4544912;28;20049;-66
2022/03/15 05:36:16;;;;;;;6.40;3.87;;;;;;;;;;4546363;28;25379;-66
2022/03/15 05:38:26;;;;;;;6.30;4.20;;;;;;;;;;4545838;28;20029;-66
2022/03/15 05:40:37;;;;;;;6.40;3.90;;;;;;;;;;4544254;28;20083;-66
2022/03/15 05:42:48;;;;;;;5.43;3.80;;;;;;;;;;4544737;28;20600;-66
2022/03/15 05:44:58;;;;;;;6.03;3.97;;;;;;;;;;4545889;28;20024;-66
2022/03/15 05:47:09;;;;;;;6.23;4.00;;;;;;;;;;4544673;28;20025;-66
2022/03/15 05:49:19;;;;;;;6.57;3.67;;;;;;;;;;4545784;28;20435;-66
2022/03/15 05:51:30;;;;;;;6.97;3.97;;;;;;;;;;4545792;28;20031;-66
2022/03/15 05:53:40;;;;;;;6.37;4.20;;;;;;;;;;4544233;28;20033;-66
2022/03/15 05:55:51;;;;;;;5.53;3.83;;;;;;;;;;4541988;28;20101;-66
2022/03/15 05:58:03;;;;;;;6.03;3.80;;;;;;;;;;4542558;28;20332;-66
2022/03/15 06:00:14;;;;;;;6.25;3.65;;;;;;;;;;4543543;28;20108;-65
2022/03/15 06:02:24;;;;;;;6.15;4.00;;;;;;;;;;4543554;28;20093;-66
2022/03/15 06:04:35;;;;;;;6.77;4.03;;;;;;;;;;4545370;28;20550;-65
2022/03/15 06:06:46;;;;;;;6.93;3.67;;;;;;;;;;4544675;28;20541;-66
2022/03/15 06:08:56;;;;;;;7.20;4.10;;;;;;;;;;4545509;28;20101;-66
2022/03/15 06:11:07;;;;;;;6.70;4.23;;;;;;;;;;4544023;28;20033;-66
2022/03/15 06:13:18;;;;;;;6.72;4.25;;;;;;;;;;4543167;28;20067;-66
2022/03/15 06:15:28;;;;;;;5.30;3.50;;;;;;;;;;4543760;28;34944;-66
2022/03/15 06:17:51;;;;;;;5.00;3.47;;;;;;;;;;4543406;28;20035;-66
2022/03/15 06:20:02;;;;;;;6.10;3.90;;;;;;;;;;4543007;28;20655;-66
2022/03/15 06:22:12;;;;;;;5.23;3.60;;;;;;;;;;4542566;28;20028;-66
2022/03/15 06:24:23;;;;;;;6.93;4.40;;;;;;;;;;4542970;28;20366;-66
2022/03/15 06:26:35;;;;;;;6.32;4.07;;;;;;;;;;4542114;28;20021;-66
2022/03/15 06:28:46;;;;;;;7.03;3.90;;;;;;;;;;4544940;28;20578;-66
2022/03/15 06:30:57;;;;;;;7.35;4.57;;;;;;;;;;4542243;28;20081;-66
2022/03/15 06:33:07;;;;;;;7.10;4.60;;;;;;;;;;4542606;28;20111;-66
2022/03/15 06:35:19;;;;;;;6.50;4.40;;;;;;;;;;4541220;28;20280;-66
2022/03/15 06:37:29;;;;;;;;;;;;;;;;;;4544321;28;20017;-66
2022/03/15 06:39:40;;;;;;;6.78;3.97;;;;;;;;;;4543834;28;19959;-66
2022/03/15 06:41:51;;;;;;;7.00;4.27;;;;;;;;;;4542428;28;20409;-66
2022/03/15 06:44:01;;;;;;;5.15;3.70;;;;;;;;;;4540751;28;20144;-66
2022/03/15 06:46:12;;;;;;;5.63;3.90;;;;;;;;;;4545888;28;20083;-66
2022/03/15 06:48:22;;;;;;;5.97;3.73;;;;;;;;;;4542712;28;20083;-66
2022/03/15 06:50:33;;;;;;;6.90;4.23;;;;;;;;;;4544394;28;20029;-66
2022/03/15 06:52:44;;;;;;;6.60;4.63;;;;;;;;;;4542586;28;20025;-66
2022/03/15 06:54:55;;;;;;;6.60;4.35;;;;;;;;;;4545274;28;20025;-66
2022/03/15 06:57:06;;;;;;;6.30;4.30;;;;;;;;;;4542417;28;20030;-66
2022/03/15 06:59:16;;;;;;;6.53;4.53;;;;;;;;;;4544489;28;20582;-66
2022/03/15 07:01:27;;;;;;;6.87;4.27;;;;;;;;;;4542505;28;20036;-66
2022/03/15 07:03:37;;;;;;;6.83;4.40;;;;;;;;;;4543131;28;20028;-66
2022/03/15 07:05:47;;;;;;;7.13;4.23;;;;;;;;;;4543223;28;39399;-66
2022/03/15 07:07:58;;;;;;;7.47;3.83;;;;;;;;;;4542569;28;20025;-66
2022/03/15 07:10:10;;;;;;;5.97;3.87;;;;;;;;;;4540621;28;20108;-66
2022/03/15 07:12:21;;;;;;;6.45;4.28;;;;;;;;;;4540356;28;20738;-66
2022/03/15 07:14:32;;;;;;;5.00;3.47;;;;;;;;;;4543644;28;20021;-66
2022/03/15 07:16:42;;;;;;;5.43;3.70;;;;;;;;;;4541286;28;20478;-66
2022/03/15 07:18:52;;;;;;;6.83;4.13;;;;;;;;;;4544340;28;20179;-67
2022/03/15 07:21:03;;;;;;;6.33;4.17;;;;;;;;;;4541883;28;42317;-66
2022/03/15 07:23:14;;;;;;;5.90;3.53;;;;;;;;;;4543270;28;20068;-66
2022/03/15 07:25:24;;;;;;;6.53;3.93;;;;;;;;;;4542077;28;20477;-66
2022/03/15 07:27:35;;;;;;;6.77;4.23;;;;;;;;;;4542496;28;20076;-66
2022/03/15 07:29:45;;;;;;;6.43;3.97;;;;;;;;;;4541390;28;20116;-66
2022/03/15 07:31:56;;;;;;;6.07;4.07;;;;;;;;;;4551525;28;21539;-65
2022/03/15 07:34:07;;;;;;;6.23;4.20;;;;;;;;;;4542441;28;20033;-66
2022/03/15 07:36:18;;;;;;;7.80;4.60;;;;;;;;;;4543405;28;20075;-66
2022/03/15 07:38:29;;;;;;;6.97;3.95;;;;;;;;;;4550552;28;20051;-66
2022/03/15 07:40:39;;;;;;;5.70;4.20;;;;;;;;;;4539391;28;20036;-67
2022/03/15 07:42:51;;;;;;;6.40;4.17;;;;;;;;;;4543614;28;20247;-66
2022/03/15 07:45:02;;;;;;;6.63;3.90;;;;;;;;;;4541570;28;20165;-67
2022/03/15 07:47:14;;;;;;;6.70;4.33;;;;;;;;;;4543879;28;20119;-66
2022/03/15 07:49:24;;;;;;;7.07;4.38;;;;;;;;;;4544232;28;20029;-66
2022/03/15 07:51:35;;;;;;;8.47;4.73;;;;;;;;;;4544004;28;20092;-67
2022/03/15 07:53:45;;;;;;;6.30;4.13;;;;;;;;;;4544752;28;20053;-67
2022/03/15 07:55:56;;;;;;;7.47;4.73;;;;;;;;;;4542475;28;20558;-67
2022/03/15 07:58:07;;;;;;;8.40;4.80;;;;;;;;;;4543019;28;20140;-66
2022/03/15 08:00:17;;;;;;;7.60;4.60;;;;;;;;;;4541437;28;20588;-66
2022/03/15 08:02:27;;;;;;;9.03;5.33;;;;;;;;;;4541348;28;20033;-66
2022/03/15 08:04:38;;;;;;;7.50;4.87;;;;;;;;;;4543138;28;20037;-67
2022/03/15 08:06:48;;;;;;;8.17;4.73;;;;;;;;;;4543594;28;20025;-67
2022/03/15 08:08:59;;;;;;;7.43;4.87;;;;;;;;;;4543324;28;20650;-66
2022/03/15 08:11:09;;;;;;;6.17;4.03;;;;;;;;;;4543553;28;20083;-66
2022/03/15 08:13:20;;;;;;;7.53;4.73;;;;;;;;;;4544045;28;20025;-67
2022/03/15 08:15:30;;;;;;;7.47;4.10;;;;;;;;;;4545548;28;20029;-66
2022/03/15 08:17:44;;;;;;;7.28;4.53;;;;;;;;;;4551275;28;20071;-66
2022/03/15 08:19:57;;;;;;;8.00;4.23;;;;;;;;;;4541891;28;20099;-67
2022/03/15 08:22:08;;;;;;;5.85;3.90;;;;;;;;;;4541166;28;20694;-67
2022/03/15 08:24:19;;;;;;;6.90;3.90;;;;;;;;;;4542510;28;20013;-67
2022/03/15 08:26:30;;;;;;;7.53;4.05;;;;;;;;;;4543541;28;20033;-66
2022/03/15 08:28:41;;;;;;;5.93;4.00;;;;;;;;;;4541133;28;20025;-66
2022/03/15 08:30:53;;;;;;;6.70;3.88;;;;;;;;;;4540546;28;20575;-67
2022/03/15 08:33:04;;;;;;;6.32;3.70;;;;;;;;;;4541444;28;20017;-67
2022/03/15 08:35:14;;;;;;;6.87;4.23;;;;;;;;;;4543988;28;20025;-66
2022/03/15 08:37:24;;;;;;;6.40;3.90;;;;;;;;;;4541547;28;20021;-67
2022/03/15 08:39:35;;;;;;;6.27;3.67;;;;;;;;;;4543264;28;20504;-66
2022/03/15 08:41:45;;;;;;;5.53;3.50;;;;;;;;;;4543669;28;20041;-67
2022/03/15 08:43:56;;;;;;;6.37;3.90;;;;;;;;;;4544744;28;20029;-66
2022/03/15 08:46:07;;;;;;;5.65;3.35;;;;;;;;;;4547579;28;20035;-67
2022/03/15 08:48:18;;;;;;;7.33;3.67;;;;;;;;;;4546073;28;20028;-66
2022/03/15 08:50:29;;;;;;;6.03;3.40;;;;;;;;;;4546478;28;20380;-66
2022/03/15 08:52:39;;;;;;;6.03;3.50;;;;;;;;;;4543892;28;20779;-66
2022/03/15 08:54:50;;;;;;;5.57;3.30;;;;;;;;;;4547407;28;20035;-66
2022/03/15 08:57:00;;;;;;;4.50;3.40;;;;;;;;;;4545546;28;20033;-67
2022/03/15 08:59:12;;;;;;;5.10;3.40;;;;;;;;;;4545672;28;20032;-67
2022/03/15 09:01:22;;;;;;;;;;;;;;;;;;4545770;28;20052;-67
2022/03/15 09:03:33;;;;;;;4.20;2.90;;;;;;;;;;4544917;28;20581;-67
2022/03/15 09:05:43;;;;;;;6.83;3.40;;;;;;;;;;4544168;28;20021;-67
2022/03/15 09:07:54;;;;;;;5.93;3.20;;;;;;;;;;4545451;28;20055;-68
2022/03/15 09:10:05;;;;;;;5.77;2.87;;;;;;;;;;4545111;28;20041;-67
2022/03/15 09:12:16;;;;;;;5.37;3.00;;;;;;;;;;4543610;28;20025;-67
2022/03/15 09:14:26;;;;;;;3.88;2.40;;;;;;;;;;4545715;28;20287;-68
2022/03/15 09:16:37;;;;;;;3.77;2.37;;;;;;;;;;4544224;28;20167;-68
2022/03/15 09:18:48;;;;;;;5.83;3.10;;;;;;;;;;4544493;28;20029;-67
2022/03/15 09:20:58;;;;;;;5.63;2.90;;;;;;;;;;4546435;28;20122;-67
2022/03/15 09:23:09;;;;;;;3.73;2.33;;;;;;;;;;4546253;28;20017;-67
2022/03/15 09:25:21;;;;;;;4.20;2.47;;;;;;;;;;4543818;28;20025;-67
2022/03/15 09:27:31;;;;;;;4.28;2.38;;;;;;;;;;4545043;28;20052;-67
2022/03/15 09:29:42;;;;;;;4.60;2.33;;;;;;;;;;4548954;28;20029;-67
2022/03/15 09:31:52;;;;;;;5.03;2.60;;;;;;;;;;4546378;28;20531;-67
2022/03/15 09:34:03;;;;;;;4.37;2.30;;;;;;;;;;4544024;28;20600;-67
2022/03/15 09:36:15;;;;;;;4.27;2.13;;;;;;;;;;4543150;28;20025;-69
2022/03/15 09:38:25;;;;;;;3.60;2.17;;;;;;;;;;4548290;28;20067;-70
2022/03/15 09:40:36;;;;;;;4.40;2.30;;;;;;;;;;4545131;28;20105;-70
2022/03/15 09:42:49;;;;;;;4.83;2.30;;;;;;;;;;4545644;28;20061;-70
2022/03/15 09:44:59;;;;;;;5.90;2.40;;;;;;;;;;4561801;28;20087;-69
2022/03/15 09:47:14;;;;;;;4.10;2.20;;;;;;;;;;4543342;28;20025;-72
2022/03/15 09:49:26;;;;;;;3.90;2.20;;;;;;;;;;4545302;28;20138;-72
2022/03/15 09:51:37;;;;;;;3.60;2.22;;;;;;;;;;4546532;28;20115;-74
2022/03/15 09:53:49;;;;;;;3.47;2.07;;;;;;;;;;4544040;28;20025;-73
2022/03/15 09:56:04;;;;;;;4.38;2.35;;;;;;;;;;4545645;28;20557;-75
2022/03/15 09:58:19;;;;;;;5.13;2.47;;;;;;;;;;4546181;28;26721;-67
2022/03/15 10:00:30;;;;;;;3.15;2.05;;;;;;;;;;4545612;28;20043;-67
2022/03/15 10:02:40;;;;;;;4.47;2.10;;;;;;;;;;4543788;28;20080;-67
2022/03/15 10:04:51;;;;;;;3.03;2.00;;;;;;;;;;4531526;28;20025;-67
2022/03/15 10:07:02;;;;;;;4.97;2.10;;;;;;;;;;4547044;28;20122;-67
2022/03/15 10:09:13;;;;;;;4.03;2.08;;;;;;;;;;4544216;28;20917;-67
2022/03/15 10:11:24;;;;;;;3.60;2.00;;;;;;;;;;4545101;28;20507;-67
2022/03/15 10:13:35;;;;;;;2.20;1.55;;;;;;;;;;4544902;28;20914;-66
2022/03/15 10:15:52;;;;;;;5.07;2.20;;;;;;;;;;4545641;28;20025;-67
2022/03/15 10:18:06;;;;;;;3.47;1.80;;;;;;;;;;4546356;28;20061;-67
2022/03/15 10:20:18;;;;;;;2.15;1.48;;;;;;;;;;4544225;28;20025;-68
2022/03/15 10:22:29;;;;;;;2.92;1.90;;;;;;;;;;4544026;28;20964;-68
2022/03/15 10:24:39;;;;;;;3.73;2.07;;;;;;;;;;4544788;28;20117;-68
2022/03/15 10:26:51;;;;;;;3.73;1.90;;;;;;;;;;4544637;28;20080;-68
2022/03/15 10:29:02;;;;;;;2.80;1.73;;;;;;;;;;4543304;28;20024;-68
2022/03/15 10:31:15;;;;;;;3.25;1.70;;;;;;;;;;4542732;28;20452;-68
2022/03/15 10:33:26;;;;;;;3.05;1.90;;;;;;;;;;4542555;28;20025;-68
2022/03/15 10:35:39;;;;;;;3.83;2.03;;;;;;;;;;4545388;28;20029;-68
2022/03/15 10:37:51;;;;;;;3.70;1.83;;;;;;;;;;4543450;28;20853;-68
2022/03/15 10:40:02;;;;;;;;;;;;;;;;;;4547978;28;20202;-68
2022/03/15 10:42:12;;;;;;;3.85;1.80;;;;;;;;;;4545666;28;19927;-68
2022/03/15 10:44:30;;;;;;;3.83;1.70;;;;;;;;;;4543890;28;20040;-68
2022/03/15 10:46:41;;;;;;;3.30;1.90;;;;;;;;;;4544180;28;20110;-68
2022/03/15 10:49:02;;;;;;;1.70;1.30;;;;;;;;;;4544118;28;20151;-68
2022/03/15 10:51:14;;;;;;;4.32;1.75;;;;;;;;;;4545142;28;20112;-68
2022/03/15 10:53:28;;;;;;;2.00;1.08;;;;;;;;;;4543697;28;20025;-68
2022/03/15 10:55:39;;;;;;;1.80;1.40;;;;;;;;;;4543795;28;20021;-68
2022/03/15 10:57:58;;;;;;;3.40;1.40;;;;;;;;;;4545255;28;20033;-68
2022/03/15 11:00:09;;;;;;;2.53;1.40;;;;;;;;;;4552423;28;20025;-68
2022/03/15 11:02:30;;;;;;;3.63;1.40;;;;;;;;;;4543973;28;20044;-67
2022/03/15 11:04:47;;;;;;;2.47;1.60;;;;;;;;;;4546356;28;20694;-67
2022/03/15 11:06:58;;;;;;;3.20;1.70;;;;;;;;;;4544353;28;20804;-68
2022/03/15 11:09:29;;;;;;;2.90;1.40;;;;;;;;;;4545953;28;20030;-68
2022/03/15 11:11:41;;;;;;;3.45;1.88;;;;;;;;;;4547206;28;20086;-68
2022/03/15 11:14:02;;;;;;;4.00;2.00;;;;;;;;;;4544504;28;20074;-68
2022/03/15 11:16:13;;;;;;;2.70;1.90;;;;;;;;;;4544025;28;20750;-68
2022/03/15 11:18:26;;;;;;;3.90;1.90;;;;;;;;;;4543853;28;20053;-68
2022/03/15 11:20:39;;;;;;;4.85;2.08;;;;;;;;;;4541679;28;20025;-67
2022/03/15 11:22:51;;;;;;;4.88;2.38;;;;;;;;;;4535483;28;20067;-68
2022/03/15 11:25:05;;;;;;;2.70;1.73;;;;;;;;;;4545385;28;20025;-68
2022/03/15 11:27:16;;;;;;;2.75;1.90;;;;;;;;;;4545101;28;20103;-68
2022/03/15 11:29:28;;;;;;;3.35;1.90;;;;;;;;;;4544003;28;20087;-68
2022/03/15 11:31:40;;;;;;;3.25;1.92;;;;;;;;;;4544140;28;20083;-68
2022/03/15 11:33:50;;;;;;;;;;;;;;;;;;4544160;28;20036;-68
2022/03/15 11:36:03;;;;;;;3.17;2.35;;;;;;;;;;4544006;28;19915;-68
2022/03/15 11:38:14;;;;;;;2.80;1.70;;;;;;;;;;4544268;28;20059;-68
2022/03/15 11:40:26;;;;;;;4.55;2.30;;;;;;;;;;4544036;28;20098;-68
2022/03/15 11:42:42;;;;;;;3.80;2.23;;;;;;;;;;4525048;28;20444;-68
2022/03/15 11:45:02;;;;;;;4.10;2.20;;;;;;;;;;4544561;28;20025;-68
2022/03/15 11:47:25;;;;;;;4.13;2.13;;;;;;;;;;4553424;28;20587;-68
2022/03/15 11:49:44;;;;;;;4.57;2.20;;;;;;;;;;4544884;28;20028;-69
2022/03/15 11:51:57;;;;;;;2.65;1.80;;;;;;;;;;4545558;28;20032;-69
2022/03/15 11:54:38;;;;;;;2.92;2.00;;;;;;;;;;4543771;28;20131;-69
2022/03/15 11:57:02;;;;;;;4.13;2.40;;;;;;;;;;4542333;28;20052;-68
2022/03/15 11:59:12;;;;;;;3.47;1.90;;;;;;;;;;4541850;28;20025;-69
2022/03/15 12:01:23;;;;;;;3.63;2.27;;;;;;;;;;4546715;28;20080;-69
2022/03/15 12:03:44;;;;;;;3.37;1.93;;;;;;;;;;4528728;28;20033;-68
2022/03/15 12:05:57;;;;;;;3.22;2.00;;;;;;;;;;4525763;28;20027;-69
2022/03/15 12:08:12;;;;;;;2.65;1.88;;;;;;;;;;4542498;28;20025;-69
2022/03/15 12:10:24;;;;;;;3.80;1.90;;;;;;;;;;4545007;28;20366;-68
2022/03/15 12:12:35;;;;;;;2.72;1.52;;;;;;;;;;4545830;28;21266;-69
2022/03/15 12:14:50;;;;;;;2.55;1.55;;;;;;;;;;4544185;28;20017;-69
2022/03/15 12:17:01;;;;;;;3.40;2.00;;;;;;;;;;4545086;28;20075;-69
2022/03/15 12:19:15;;;;;;;3.13;1.80;;;;;;;;;;4546390;28;20064;-68
2022/03/15 12:21:26;;;;;;;3.28;1.70;;;;;;;;;;4548851;28;21105;-69
2022/03/15 12:23:41;;;;;;;;;;;;;;;;;;4555716;28;20790;-69
2022/03/15 12:25:56;;;;;;;2.03;1.60;;;;;;;;;;4546920;28;19951;-69
2022/03/15 12:28:07;;;;;;;3.42;1.73;;;;;;;;;;4547981;28;20024;-69
2022/03/15 12:30:29;;;;;;;2.35;1.48;;;;;;;;;;4547340;28;20036;-69
2022/03/15 12:32:49;;;;;;;4.22;1.80;;;;;;;;;;4539176;28;20041;-69
2022/03/15 12:35:00;;;;;;;2.43;1.70;;;;;;;;;;4549565;28;20036;-69
2022/03/15 12:37:11;;;;;;;3.27;1.83;;;;;;;;;;4547066;28;20028;-69
2022/03/15 12:39:24;;;;;;;3.00;1.67;;;;;;;;;;4543964;28;20053;-69
2022/03/15 12:41:35;;;;;;;1.80;1.40;;;;;;;;;;4538614;28;20913;-69
2022/03/15 12:43:52;;;;;;;3.60;1.93;;;;;;;;;;4544837;28;20877;-69
2022/03/15 12:46:07;;;;;;;2.63;1.52;;;;;;;;;;4548672;28;21244;-70
2022/03/15 12:48:28;;;;;;;2.50;1.40;;;;;;;;;;4537665;28;20029;-69
2022/03/15 12:50:38;;;;;;;2.80;1.52;;;;;;;;;;4547854;28;20104;-69
2022/03/15 12:52:51;;;;;;;2.37;1.30;;;;;;;;;;4549388;28;20866;-69
2022/03/15 12:55:02;;;;;;;4.60;1.80;;;;;;;;;;4549608;28;20033;-69
2022/03/15 12:57:16;;;;;;;2.97;1.60;;;;;;;;;;4546222;28;20021;-69
2022/03/15 12:59:26;;;;;;;2.60;1.60;;;;;;;;;;4546073;28;20032;-69
2022/03/15 13:01:37;;;;;;;3.33;1.80;;;;;;;;;;4546577;28;20796;-69
2022/03/15 13:03:48;;;;;;;2.22;1.33;;;;;;;;;;4534330;28;21052;-69
2022/03/15 13:05:58;;;;;;;2.20;1.50;;;;;;;;;;4545026;28;20070;-69
2022/03/15 13:08:10;;;;;;;3.07;1.57;;;;;;;;;;4544286;28;20052;-69
2022/03/15 13:10:38;;;;;;;2.38;1.80;;;;;;;;;;4546901;28;20534;-69
2022/03/15 13:12:49;;;;;;;2.97;1.45;;;;;;;;;;4554732;28;20032;-68
2022/03/15 13:14:59;;;;;;;3.13;1.60;;;;;;;;;;4546330;28;20021;-69